Time;durP1;ratioP1;P1;durP2;ratioP2;P2;SDS_P1;SDS_P2;PMS_P1;PMS_P2;Temp;Humidity;BMP_temperature;BMP_pressure;BME280_temperature;BME280_humidity;BME280_pressure;Samples;Min_cycle;Max_cycle;Signal;HPM_P1;HPM_P2
2022/01/21 00:00:04;;;;;;;7.47;2.83;;;;;;;0.41;100.00;97276.66;5006479;28;105443;-63
2022/01/21 00:02:38;;;;;;;5.00;2.70;;;;;;;0.38;100.00;97275.19;4987626;28;102376;-63
2022/01/21 00:05:07;;;;;;;9.20;2.80;;;;;;;0.36;100.00;97266.69;5003622;28;101929;-63
2022/01/21 00:07:38;;;;;;;4.50;2.70;;;;;;;0.34;100.00;97273.09;4989576;28;105874;-63
2022/01/21 00:10:06;;;;;;;6.13;2.80;;;;;;;0.35;100.00;97267.69;5005379;28;105730;-63
2022/01/21 00:12:57;;;;;;;4.93;2.60;;;;;;;0.34;100.00;97266.03;5009723;28;101961;-63
2022/01/21 00:15:24;;;;;;;7.20;2.63;;;;;;;0.29;100.00;97268.31;5009517;28;105475;-63
2022/01/21 00:18:07;;;;;;;3.77;2.43;;;;;;;0.29;100.00;97276.16;5008972;28;105712;-63
2022/01/21 00:32:13;;;;;;;4.53;2.67;;;;;;;0.25;100.00;97290.59;5008738;28;105787;-63
2022/01/21 00:34:39;;;;;;;6.93;2.30;;;;;;;0.25;100.00;97302.81;5009073;28;101973;-63
2022/01/21 00:37:06;;;;;;;6.33;2.70;;;;;;;0.24;100.00;97286.31;5009229;28;104874;-63
2022/01/21 00:39:53;;;;;;;5.77;2.70;;;;;;;0.25;100.00;97289.75;5005151;28;105329;-63
2022/01/21 00:45:49;;;;;;;4.77;2.50;;;;;;;0.21;100.00;97288.44;5052337;27;101517;-62
2022/01/21 00:48:26;;;;;;;4.10;2.40;;;;;;;0.19;100.00;97291.25;5045528;27;103684;-62
2022/01/21 00:50:54;;;;;;;7.23;2.57;;;;;;;0.19;100.00;97275.56;5046338;27;101952;-62
2022/01/21 00:53:22;;;;;;;4.93;2.40;;;;;;;0.18;100.00;97279.13;5046219;27;104418;-62
2022/01/21 00:55:49;;;;;;;5.60;2.80;;;;;;;0.20;100.00;97284.19;5046863;27;102994;-62
2022/01/21 00:58:35;;;;;;;3.27;2.53;;;;;;;0.19;100.00;97279.94;5026026;28;101850;-62
2022/01/21 01:01:04;;;;;;;3.60;2.40;;;;;;;0.17;100.00;97295.00;5027130;27;105613;-62
2022/01/21 01:03:31;;;;;;;5.73;2.70;;;;;;;0.16;100.00;97296.78;5045392;27;105416;-62
2022/01/21 01:05:58;;;;;;;4.13;1.80;;;;;;;0.17;100.00;97300.22;5049522;27;102272;-62
2022/01/21 01:08:51;;;;;;;5.07;2.67;;;;;;;0.13;100.00;97296.31;5042184;27;105454;-62
2022/01/21 01:12:11;;;;;;;3.17;2.10;;;;;;;0.16;100.00;97306.41;5028266;27;101935;-62
2022/01/21 01:20:49;;;;;;;4.03;2.00;;;;;;;0.14;100.00;97330.16;5045744;27;101870;-62
2022/01/21 01:23:36;;;;;;;6.40;2.20;;;;;;;0.14;100.00;97327.53;5045687;27;105228;-62
2022/01/21 01:29:11;;;;;;;4.20;2.23;;;;;;;0.12;100.00;97320.81;5029165;27;101948;-62
2022/01/21 01:31:39;;;;;;;3.63;2.60;;;;;;;0.13;100.00;97312.00;5048143;27;106319;-62
2022/01/21 01:34:06;;;;;;;5.97;2.47;;;;;;;0.12;100.00;97320.81;5045555;27;101984;-62
2022/01/21 01:36:35;;;;;;;8.03;2.80;;;;;;;0.12;100.00;97320.81;5045428;27;105223;-62
2022/01/21 01:39:31;;;;;;;3.57;2.47;;;;;;;0.15;100.00;97323.09;5044986;27;105769;-62
2022/01/21 01:42:33;;;;;;;5.73;2.20;;;;;;;0.14;100.00;97324.91;5045505;27;101849;-62
2022/01/21 01:50:49;;;;;;;4.83;2.37;;;;;;;0.14;100.00;97319.69;5045548;27;101767;-62
2022/01/21 01:53:20;;;;;;;4.83;2.43;;;;;;;0.14;100.00;97313.63;5045062;27;105050;-62
2022/01/21 01:55:49;;;;;;;5.00;2.80;;;;;;;0.13;100.00;97317.22;5042073;27;105727;-62
2022/01/21 01:58:48;;;;;;;4.27;2.40;;;;;;;0.10;100.00;97312.31;5031579;28;105267;-62
2022/01/21 02:01:15;;;;;;;7.67;2.53;;;;;;;0.14;100.00;97311.84;5031082;28;105451;-62
2022/01/21 02:03:42;;;;;;;4.27;2.77;;;;;;;0.15;100.00;97310.03;5031539;28;102693;-62
2022/01/21 02:06:09;;;;;;;4.60;2.60;;;;;;;0.15;100.00;97313.47;5031687;28;105300;-62
2022/01/21 02:09:00;;;;;;;4.43;2.67;;;;;;;0.11;100.00;97313.97;5027809;28;105535;-62
2022/01/21 02:11:28;;;;;;;4.63;2.40;;;;;;;0.10;100.00;97313.13;5015205;28;101861;-62
2022/01/21 02:13:59;;;;;;;3.73;2.40;;;;;;;0.13;100.00;97309.38;5031192;28;105228;-62
2022/01/21 02:16:42;;;;;;;9.00;2.77;;;;;;;0.12;100.00;97310.38;5030808;28;104392;-62
2022/01/21 02:22:03;;;;;;;5.03;2.77;;;;;;;0.11;100.00;97308.72;5028014;28;105475;-62
2022/01/21 02:24:45;;;;;;;5.47;2.60;;;;;;;0.12;100.00;97305.94;5031495;28;101848;-62
2022/01/21 02:27:12;;;;;;;5.00;2.60;;;;;;;0.14;100.00;97313.63;5031288;28;104413;-62
2022/01/21 02:29:45;;;;;;;3.63;2.63;;;;;;;0.09;100.00;97308.91;5030713;28;105956;-62
2022/01/21 02:32:13;;;;;;;5.13;2.90;;;;;;;0.10;100.00;97307.91;5031098;28;101808;-62
2022/01/21 02:34:41;;;;;;;7.37;3.03;;;;;;;0.09;100.00;97321.97;5030975;28;104302;-62
2022/01/21 02:37:10;;;;;;;6.33;2.97;;;;;;;0.11;100.00;97319.19;5030625;28;105779;-62
2022/01/21 02:39:38;;;;;;;4.90;2.70;;;;;;;0.03;100.00;97314.78;5031106;28;102283;-62
2022/01/21 02:42:08;;;;;;;3.40;2.83;;;;;;;-0.01;100.00;97316.06;5033781;28;105341;-62
2022/01/21 02:44:36;;;;;;;4.20;2.80;;;;;;;-0.02;100.00;97319.66;5030427;28;101931;-62
2022/01/21 02:47:05;;;;;;;4.30;2.60;;;;;;;-0.01;100.00;97323.91;5030959;28;104151;-62
2022/01/21 02:49:38;;;;;;;5.83;3.50;;;;;;;0.05;100.00;97322.44;5030552;28;105387;-62
2022/01/21 02:52:07;;;;;;;4.43;2.67;;;;;;;0.02;100.00;97318.34;5030970;28;101900;-62
2022/01/21 02:54:37;;;;;;;5.53;2.50;;;;;;;0.02;100.00;97326.19;5059681;27;105159;-62
2022/01/21 02:57:09;;;;;;;4.80;2.80;;;;;;;0.02;100.00;97328.00;5012922;28;105479;-62
2022/01/21 03:00:01;;;;;;;5.63;3.07;;;;;;;0.01;100.00;97339.44;5030824;28;101934;-62
2022/01/21 03:02:30;;;;;;;3.77;2.80;;;;;;;0.02;100.00;97330.63;5030422;28;105333;-62
2022/01/21 03:05:03;;;;;;;5.87;2.87;;;;;;;0.00;100.00;97325.53;5032995;28;101970;-62
2022/01/21 03:07:31;;;;;;;4.83;2.93;;;;;;;0.00;100.00;97314.28;5029365;28;105100;-62
2022/01/21 03:09:59;;;;;;;5.33;2.77;;;;;;;0.00;100.00;97322.94;5030437;28;105547;-62
2022/01/21 03:12:33;;;;;;;3.73;2.83;;;;;;;0.00;100.00;97332.59;5030440;28;101888;-62
2022/01/21 03:15:00;;;;;;;4.63;2.83;;;;;;;0.01;100.00;97344.69;5030342;28;105157;-62
2022/01/21 03:17:31;;;;;;;7.00;2.80;;;;;;;0.03;100.00;97337.47;5029972;28;104604;-62
2022/01/21 03:19:58;;;;;;;3.63;3.00;;;;;;;0.03;100.00;97347.94;5030697;28;101825;-62
2022/01/21 03:22:25;;;;;;;5.50;2.60;;;;;;;0.03;100.00;97345.31;5030345;28;105166;-62
2022/01/21 03:24:53;;;;;;;4.83;2.70;;;;;;;0.04;100.00;97349.56;5033151;28;105471;-62
2022/01/21 03:27:47;;;;;;;5.50;2.80;;;;;;;0.03;100.00;97348.75;5030481;28;105188;-62
2022/01/21 03:30:14;;;;;;;6.87;3.00;;;;;;;0.03;100.00;97354.00;5029611;28;103031;-62
2022/01/21 03:32:49;;;;;;;3.67;2.53;;;;;;;0.04;100.00;97354.78;5030128;28;101761;-62
2022/01/21 03:35:16;;;;;;;6.27;2.83;;;;;;;0.00;100.00;97356.13;5030054;28;105114;-62
2022/01/21 03:41:13;;;;;;;6.07;2.63;;;;;;;-0.04;100.00;97349.56;5030389;28;102043;-62
2022/01/21 03:43:42;;;;;;;9.70;2.97;;;;;;;-0.01;100.00;97351.84;5029560;28;105196;-62
2022/01/21 03:46:09;;;;;;;6.93;2.60;;;;;;;-0.03;100.00;97351.19;5029096;28;105416;-62
2022/01/21 03:49:37;;;;;;;7.13;2.83;;;;;;;-0.03;100.00;97353.81;5033364;28;103451;-62
2022/01/21 03:52:05;;;;;;;4.53;2.60;;;;;;;-0.04;100.00;97346.97;5029519;28;105720;-62
2022/01/21 03:54:32;;;;;;;7.97;3.10;;;;;;;-0.08;100.00;97371.78;5013193;28;102107;-62
2022/01/21 03:57:00;;;;;;;4.77;2.37;;;;;;;-0.06;100.00;97357.56;5029996;28;105188;-62
2022/01/21 03:59:56;;;;;;;5.33;2.60;;;;;;;-0.08;100.00;97356.09;5043444;27;105496;-62
2022/01/21 04:02:24;;;;;;;5.50;2.70;;;;;;;-0.07;100.00;97362.94;5011772;28;103467;-62
2022/01/21 04:04:52;;;;;;;3.13;2.30;;;;;;;-0.08;100.00;97350.88;5029655;28;105260;-62
2022/01/21 04:07:19;;;;;;;5.87;2.73;;;;;;;-0.10;100.00;97343.16;5028862;28;105392;-62
2022/01/21 04:09:47;;;;;;;5.60;2.60;;;;;;;-0.06;100.00;97348.91;5029833;28;102259;-62
2022/01/21 04:15:38;;;;;;;4.90;2.53;;;;;;;-0.07;100.00;97342.03;5054004;27;101808;-62
2022/01/21 04:21:30;;;;;;;6.00;2.97;;;;;;;-0.06;100.00;97343.66;5029235;28;105086;-62
2022/01/21 04:23:59;;;;;;;4.70;2.60;;;;;;;-0.07;100.00;97347.25;5029133;28;102025;-62
2022/01/21 04:26:38;;;;;;;6.30;2.77;;;;;;;-0.03;100.00;97351.19;5029436;28;104091;-62
2022/01/21 04:29:13;;;;;;;6.83;2.30;;;;;;;0.00;100.00;97345.66;5028885;28;105470;-62
2022/01/21 04:31:47;;;;;;;5.00;2.40;;;;;;;-0.03;100.00;97353.81;5029490;28;101922;-62
2022/01/21 04:34:16;;;;;;;4.93;2.50;;;;;;;-0.01;100.00;97351.84;5029433;28;105420;-62
2022/01/21 04:36:44;;;;;;;4.57;2.40;;;;;;;-0.03;100.00;97359.88;5032011;28;105366;-62
2022/01/21 04:39:20;;;;;;;5.10;2.20;;;;;;;-0.01;100.00;97341.38;5029265;28;105091;-62
2022/01/21 04:47:22;;;;;;;2.90;1.83;;;;;;;0.00;100.00;97363.97;5029152;28;105625;-62
2022/01/21 04:49:52;;;;;;;4.83;2.03;;;;;;;0.04;100.00;97373.09;5028822;28;105327;-62
2022/01/21 04:52:21;;;;;;;8.17;2.37;;;;;;;0.03;100.00;97363.63;5028696;28;101964;-61
2022/01/21 04:54:53;;;;;;;4.37;2.07;;;;;;;0.02;100.00;97365.41;5029173;28;105199;-62
2022/01/21 04:57:22;;;;;;;5.93;1.70;;;;;;;0.05;100.00;97366.88;5028735;28;105570;-62
2022/01/21 04:59:50;;;;;;;7.53;2.17;;;;;;;0.03;100.00;97377.53;5032380;28;101879;-62
2022/01/21 05:02:17;;;;;;;3.43;2.07;;;;;;;0.02;100.00;97383.72;5028381;28;104022;-62
2022/01/21 05:04:47;;;;;;;2.80;2.17;;;;;;;0.02;100.00;97381.09;5013944;28;101926;-62
2022/01/21 05:07:19;;;;;;;5.17;2.30;;;;;;;0.02;100.00;97388.13;5028962;28;105321;-62
2022/01/21 05:09:46;;;;;;;5.53;2.17;;;;;;;-0.01;100.00;97389.28;5028416;28;105322;-62
2022/01/21 05:12:19;;;;;;;4.83;2.47;;;;;;;-0.04;100.00;97380.94;5029124;28;102275;-62
2022/01/21 05:14:51;;;;;;;3.50;2.03;;;;;;;-0.03;100.00;97386.00;5025984;28;105233;-62
2022/01/21 05:17:26;;;;;;;4.90;2.23;;;;;;;-0.08;100.00;97393.53;5027963;28;104956;-62
2022/01/21 05:19:54;;;;;;;4.93;2.30;;;;;;;-0.08;100.00;97400.53;5032010;28;102060;-62
2022/01/21 05:22:45;;;;;;;5.03;2.20;;;;;;;-0.08;100.00;97397.91;5028696;27;103643;-62
2022/01/21 05:25:17;;;;;;;2.77;1.87;;;;;;;-0.10;100.00;97402.50;5030223;27;101901;-62
2022/01/21 05:27:53;;;;;;;4.37;2.10;;;;;;;-0.13;100.00;97421.94;5028706;28;105372;-62
2022/01/21 05:30:21;;;;;;;6.43;2.30;;;;;;;-0.12;100.00;97417.50;5026208;28;104428;-62
2022/01/21 05:32:56;;;;;;;10.03;5.23;;;;;;;-0.13;100.00;97416.69;5032096;28;102201;-62
2022/01/21 05:35:44;;;;;;;11.03;5.13;;;;;;;-0.12;100.00;97401.81;5034041;28;102071;-62
2022/01/21 05:38:48;;;;;;;5.87;2.40;;;;;;;-0.15;100.00;97421.25;5029877;28;103636;-62
2022/01/21 05:41:44;;;;;;;3.80;1.93;;;;;;;-0.16;100.00;97424.84;5031796;28;101914;-62
2022/01/21 05:47:40;;;;;;;11.47;6.13;;;;;;;-0.17;100.00;97434.66;5031765;28;101943;-62
2022/01/21 05:50:30;;;;;;;5.80;2.73;;;;;;;-0.18;100.00;97423.38;5031789;28;105404;-62
2022/01/21 05:53:22;;;;;;;8.27;2.70;;;;;;;-0.19;100.00;97432.19;5006732;28;103161;-62
2022/01/21 05:56:02;;;;;;;4.73;2.57;;;;;;;-0.17;100.00;97449.34;5045461;27;101803;-62
2022/01/21 05:59:07;;;;;;;5.60;2.60;;;;;;;-0.22;100.00;97456.84;5029403;27;102735;-62
2022/01/21 06:01:37;;;;;;;2.53;1.67;;;;;;;-0.49;100.00;97458.88;5032832;27;102454;-62
2022/01/21 06:04:07;;;;;;;5.67;1.77;;;;;;;-0.75;100.00;97463.28;5031403;28;102236;-62
2022/01/21 06:06:35;;;;;;;3.50;1.50;;;;;;;-0.91;100.00;97462.38;5031653;28;105980;-62
2022/01/21 06:12:33;;;;;;;4.97;1.50;;;;;;;-1.16;100.00;97481.44;5031295;28;104964;-62
2022/01/21 06:15:00;;;;;;;2.70;1.47;;;;;;;-1.17;100.00;97485.00;5031043;28;105731;-62
2022/01/21 06:18:23;;;;;;;4.93;1.63;;;;;;;-1.21;100.00;97487.09;5032466;27;101943;-62
2022/01/21 06:20:50;;;;;;;3.43;1.33;;;;;;;-1.22;100.00;97488.06;5031081;28;104369;-62
2022/01/21 06:23:17;;;;;;;4.90;1.80;;;;;;;-1.25;100.00;97496.22;5030669;28;104185;-62
2022/01/21 06:25:44;;;;;;;3.77;1.50;;;;;;;-1.29;100.00;97497.47;5031326;28;102026;-62
2022/01/21 06:28:13;;;;;;;2.93;1.50;;;;;;;-1.35;100.00;97492.88;5031122;28;105477;-62
2022/01/21 06:30:40;;;;;;;6.40;1.20;;;;;;;-1.45;100.00;97499.13;5030663;28;105617;-62
2022/01/21 06:33:09;;;;;;;2.90;1.53;;;;;;;-1.38;100.00;97502.78;5034624;28;102045;-62
2022/01/21 06:35:35;;;;;;;13.23;5.20;;;;;;;-1.41;100.00;97501.31;5031069;28;105742;-62
2022/01/21 06:38:30;;;;;;;3.80;1.57;;;;;;;-1.55;100.00;97514.00;5030855;28;102147;-62
2022/01/21 06:41:08;;;;;;;4.00;1.53;;;;;;;-1.56;100.00;97513.22;5011954;28;104168;-62
2022/01/21 06:43:38;;;;;;;5.47;2.03;;;;;;;-1.57;100.00;97508.97;5029778;28;104486;-62
2022/01/21 06:46:07;;;;;;;4.03;2.30;;;;;;;-1.57;100.00;97519.41;5030854;28;101924;-62
2022/01/21 06:48:47;;;;;;;4.60;2.93;;;;;;;-1.52;100.00;97527.59;5030928;28;103952;-62
2022/01/21 06:51:14;;;;;;;3.43;1.87;;;;;;;-1.55;100.00;97521.84;5029808;28;104295;-62
2022/01/21 06:53:41;;;;;;;4.73;1.83;;;;;;;-1.56;100.00;97533.25;5032086;28;101894;-62
2022/01/21 06:56:09;;;;;;;2.90;1.83;;;;;;;-1.54;100.00;97528.72;5033423;28;105001;-62
2022/01/21 06:59:17;;;;;;;5.87;2.00;;;;;;;-1.52;100.00;97537.19;5030899;28;101937;-62
2022/01/21 07:01:46;;;;;;;5.67;2.30;;;;;;;-1.52;100.00;97539.81;5024234;28;104064;-62
2022/01/21 07:04:13;;;;;;;3.23;1.97;;;;;;;-1.53;100.00;97544.19;5029205;28;105696;-59
2022/01/21 07:06:40;;;;;;;8.87;3.83;;;;;;;-1.58;100.00;97543.81;5031465;28;103296;-58
2022/01/21 07:09:33;;;;;;;4.43;1.67;;;;;;;-1.74;100.00;97543.66;5030214;28;103510;-57
2022/01/21 07:12:02;;;;;;;6.67;1.80;;;;;;;-1.84;100.00;97532.47;5028496;28;105807;-59
2022/01/21 07:14:29;;;;;;;4.20;1.50;;;;;;;-1.80;100.00;97546.03;5029875;28;102015;-57
2022/01/21 07:16:57;;;;;;;3.00;1.40;;;;;;;-1.83;100.00;97547.13;5029914;28;105269;-58
2022/01/21 07:19:28;;;;;;;7.40;1.57;;;;;;;-1.83;100.00;97547.13;5033092;28;105397;-56
2022/01/21 07:21:55;;;;;;;4.17;1.43;;;;;;;-1.85;100.00;97550.84;5029735;28;105157;-59
2022/01/21 07:24:22;;;;;;;5.10;1.90;;;;;;;-1.80;100.00;97561.66;5029361;28;105720;-59
2022/01/21 07:26:48;;;;;;;3.40;1.70;;;;;;;-1.82;100.00;97566.19;5029703;28;101908;-59
2022/01/21 07:29:45;;;;;;;4.03;1.70;;;;;;;-1.91;100.00;97574.91;5029997;28;104118;-59
2022/01/21 07:32:14;;;;;;;3.20;1.70;;;;;;;-1.89;100.00;97584.22;5028680;28;105575;-57
2022/01/21 07:34:41;;;;;;;3.80;1.60;;;;;;;-1.92;100.00;97574.06;5029604;28;102039;-57
2022/01/21 07:37:08;;;;;;;5.47;1.60;;;;;;;-1.99;100.00;97580.00;5029540;28;105260;-59
2022/01/21 07:39:36;;;;;;;3.63;1.77;;;;;;;-1.95;100.00;97578.75;5032508;28;105208;-59
2022/01/21 07:42:04;;;;;;;5.20;1.83;;;;;;;-1.88;100.00;97583.25;5029146;28;105154;-59
2022/01/21 07:44:32;;;;;;;6.20;2.80;;;;;;;-1.86;100.00;97576.09;5028360;28;105103;-59
2022/01/21 07:47:00;;;;;;;9.50;4.50;;;;;;;-1.76;100.00;97576.88;5028295;28;102088;-56
2022/01/21 07:49:48;;;;;;;10.43;4.10;;;;;;;-1.68;100.00;97584.81;5029725;28;105295;-56
2022/01/21 07:52:15;;;;;;;5.10;2.30;;;;;;;-1.62;100.00;97583.38;5028842;28;105447;-57
2022/01/21 07:54:42;;;;;;;3.70;1.80;;;;;;;-1.54;100.00;97586.09;5030318;27;101860;-58
2022/01/21 07:57:10;;;;;;;4.07;2.03;;;;;;;-1.34;100.00;97582.38;5028985;28;104407;-57
2022/01/21 07:59:38;;;;;;;5.30;2.10;;;;;;;-1.15;100.00;97583.06;5028595;28;103839;-57
2022/01/21 08:02:07;;;;;;;4.37;2.00;;;;;;;-1.10;100.00;97575.59;5034014;27;101993;-58
2022/01/21 08:04:34;;;;;;;4.90;2.20;;;;;;;-1.04;100.00;97577.59;5028728;28;105037;-59
2022/01/21 08:07:02;;;;;;;4.27;2.10;;;;;;;-1.13;100.00;97569.88;5029193;28;101933;-58
2022/01/21 08:09:31;;;;;;;3.23;1.87;;;;;;;-1.09;100.00;97566.78;5030363;28;102613;-58
2022/01/21 08:12:15;;;;;;;3.27;1.90;;;;;;;-0.99;100.00;97580.59;5051034;27;105234;-58
2022/01/21 08:14:42;;;;;;;4.63;2.00;;;;;;;-1.11;100.00;97573.97;5029432;28;101882;-60
2022/01/21 08:17:09;;;;;;;3.80;1.90;;;;;;;-1.15;100.00;97584.84;5029119;28;105765;-59
2022/01/21 08:20:02;;;;;;;5.43;1.83;;;;;;;-1.22;100.00;97587.22;5028410;28;105290;-59
2022/01/21 08:22:30;;;;;;;6.83;2.30;;;;;;;-1.18;100.00;97587.75;5030438;27;101881;-58
2022/01/21 08:24:57;;;;;;;8.20;2.00;;;;;;;-1.08;100.00;97578.91;5031685;28;104960;-57
2022/01/21 08:27:25;;;;;;;7.07;2.67;;;;;;;-1.08;100.00;97568.47;5028899;28;101856;-59
2022/01/21 08:29:52;;;;;;;8.63;2.53;;;;;;;-1.10;100.00;97573.00;5028909;28;105025;-58
2022/01/21 08:32:21;;;;;;;6.93;2.73;;;;;;;-1.04;100.00;97569.78;5028199;28;105703;-59
2022/01/21 08:34:49;;;;;;;5.60;3.03;;;;;;;-0.93;100.00;97572.16;5028939;28;101929;-59
2022/01/21 08:37:16;;;;;;;8.13;3.40;;;;;;;-0.85;100.00;97569.63;5028590;28;103568;-59
2022/01/21 08:39:45;;;;;;;5.93;2.63;;;;;;;-0.70;100.00;97573.34;5028451;28;105387;-59
2022/01/21 08:42:14;;;;;;;5.27;2.80;;;;;;;-0.76;100.00;97571.34;5030171;28;103494;-59
2022/01/21 08:44:41;;;;;;;7.90;2.90;;;;;;;-0.64;100.00;97572.72;5028260;28;105022;-58
2022/01/21 08:47:08;;;;;;;5.80;2.70;;;;;;;-0.77;100.00;97572.28;5008004;28;105446;-58
2022/01/21 08:50:19;;;;;;;7.77;3.10;;;;;;;-0.75;100.00;97578.19;5028727;28;105251;-59
2022/01/21 08:52:47;;;;;;;6.57;2.97;;;;;;;-0.72;100.00;97569.25;5027564;27;105484;-57
2022/01/21 08:55:17;;;;;;;7.67;2.97;;;;;;;-0.75;100.00;97566.91;5028552;28;101944;-57
2022/01/21 08:58:14;;;;;;;8.97;3.37;;;;;;;-0.63;100.00;97568.31;5028581;28;103683;-58
2022/01/21 09:00:41;;;;;;;8.17;3.50;;;;;;;-0.60;100.00;97579.28;5028324;28;105347;-57
2022/01/21 09:03:08;;;;;;;8.00;3.17;;;;;;;-0.48;100.00;97578.06;5028395;28;103554;-57
2022/01/21 09:05:34;;;;;;;8.83;3.53;;;;;;;-0.38;100.00;97573.56;5029338;27;105158;-57
2022/01/21 09:08:04;;;;;;;7.93;3.17;;;;;;;-0.45;100.00;97567.31;5031211;28;105690;-57
2022/01/21 09:10:33;;;;;;;8.43;3.30;;;;;;;0.22;100.00;97578.59;5035455;28;101944;-57
2022/01/21 09:13:04;;;;;;;8.17;3.07;;;;;;;-0.22;100.00;97569.25;5031494;28;105725;-57
2022/01/21 09:15:33;;;;;;;11.63;4.60;;;;;;;-0.13;100.00;97570.09;5032069;28;102184;-56
2022/01/21 09:18:46;;;;;;;8.53;3.70;;;;;;;-0.20;100.00;97571.72;5031934;28;105202;-57
2022/01/21 09:21:14;;;;;;;8.30;3.10;;;;;;;-0.40;100.00;97585.16;5045084;27;105722;-56
2022/01/21 09:23:41;;;;;;;8.70;3.33;;;;;;;-0.27;100.00;97581.94;5015617;28;101883;-57
2022/01/21 09:26:10;;;;;;;5.40;3.13;;;;;;;-0.27;100.00;97584.56;5032019;28;105145;-56
2022/01/21 09:28:39;;;;;;;8.53;3.80;;;;;;;0.12;100.00;97580.53;5031081;28;105350;-57
2022/01/21 09:31:06;;;;;;;6.23;3.03;;;;;;;0.03;100.00;97584.09;5031897;28;101782;-56
2022/01/21 09:33:33;;;;;;;6.27;2.67;;;;;;;0.02;100.00;97589.47;5034147;28;105004;-56
2022/01/21 09:36:00;;;;;;;5.27;3.03;;;;;;;-0.06;100.00;97586.81;5031835;28;101842;-56
2022/01/21 09:39:02;;;;;;;7.43;3.33;;;;;;;0.34;100.00;97594.84;5031836;28;104991;-56
2022/01/21 09:44:53;;;;;;;4.97;2.70;;;;;;;0.58;100.00;97582.66;5030970;28;102130;-58
2022/01/21 09:47:50;;;;;;;5.83;3.10;;;;;;;0.75;100.00;97591.38;5031463;28;105066;-57
2022/01/21 09:50:21;;;;;;;5.83;2.83;;;;;;;0.78;100.00;97593.69;5023656;28;103854;-59
2022/01/21 09:52:49;;;;;;;7.97;3.27;;;;;;;0.90;100.00;97587.16;5031683;28;101828;-59
2022/01/21 09:55:20;;;;;;;7.13;4.60;;;;;;;1.12;100.00;97584.72;5034315;28;106083;-59
2022/01/21 09:58:17;;;;;;;6.70;3.53;;;;;;;1.44;100.00;97578.66;5031600;28;101862;-59
2022/01/21 10:00:46;;;;;;;9.40;3.40;;;;;;;1.12;100.00;97583.91;5031002;28;105289;-59
2022/01/21 10:03:13;;;;;;;7.60;3.97;;;;;;;0.86;100.00;97593.69;5030714;28;103795;-57
2022/01/21 10:05:40;;;;;;;5.80;3.00;;;;;;;0.51;100.00;97589.50;5031074;28;103412;-57
2022/01/21 10:08:09;;;;;;;7.00;2.83;;;;;;;0.22;100.00;97593.50;5030834;28;105161;-57
2022/01/21 10:10:40;;;;;;;9.57;3.30;;;;;;;0.15;100.00;97595.09;5030606;28;105024;-55
2022/01/21 10:13:08;;;;;;;9.23;3.33;;;;;;;0.15;100.00;97597.69;5027416;28;101894;-57
2022/01/21 10:15:37;;;;;;;6.80;2.63;;;;;;;0.18;100.00;97597.41;5032642;28;103046;-58
2022/01/21 10:18:09;;;;;;;7.50;2.87;;;;;;;0.18;100.00;97600.81;5032991;27;105599;-60
2022/01/21 10:20:36;;;;;;;10.10;3.00;;;;;;;0.19;100.00;97599.88;5032615;27;102440;-58
2022/01/21 10:23:05;;;;;;;8.53;2.83;;;;;;;0.16;100.00;97600.16;5030387;28;105447;-55
2022/01/21 10:25:33;;;;;;;5.80;2.33;;;;;;;0.08;100.00;97607.16;5032160;28;101932;-57
2022/01/21 10:28:20;;;;;;;9.60;2.87;;;;;;;-0.13;100.00;97603.28;5064386;27;103743;-57
2022/01/21 10:30:48;;;;;;;6.97;2.57;;;;;;;-0.06;100.00;97607.72;5030318;28;106052;-57
2022/01/21 10:33:23;;;;;;;5.37;2.67;;;;;;;0.00;100.00;97599.28;5030648;28;101928;-58
2022/01/21 10:35:51;;;;;;;9.07;2.57;;;;;;;0.02;100.00;97599.94;5031035;28;104843;-59
2022/01/21 10:38:29;;;;;;;4.30;2.90;;;;;;;0.03;100.00;97598.94;5029898;28;105839;-59
2022/01/21 10:41:03;;;;;;;6.50;2.90;;;;;;;0.20;100.00;97603.28;5034478;28;102028;-59
2022/01/21 10:43:30;;;;;;;5.63;2.57;;;;;;;0.25;100.00;97601.03;5028610;28;105110;-59
2022/01/21 10:45:59;;;;;;;8.03;2.77;;;;;;;0.40;100.00;97613.34;5030527;28;103459;-59
2022/01/21 10:48:59;;;;;;;3.50;2.27;;;;;;;0.27;100.00;97612.13;5031685;27;102918;-59
2022/01/21 10:51:29;;;;;;;5.87;2.33;;;;;;;0.30;100.00;97610.06;5029689;28;105781;-59
2022/01/21 10:53:58;;;;;;;8.13;2.30;;;;;;;0.32;100.00;97604.63;5030577;28;102005;-59
2022/01/21 10:56:27;;;;;;;8.00;2.13;;;;;;;0.40;100.00;97602.06;5030279;28;105533;-59
2022/01/21 10:59:03;;;;;;;7.13;2.50;;;;;;;0.59;100.00;97593.94;5029350;28;105366;-58
2022/01/21 11:01:31;;;;;;;6.47;2.47;;;;;;;0.45;100.00;97599.81;5030504;28;102127;-58
2022/01/21 11:04:03;;;;;;;4.70;2.07;;;;;;;0.30;100.00;97611.84;5066948;27;105436;-58
2022/01/21 11:06:38;;;;;;;7.53;2.17;;;;;;;0.25;100.00;97619.31;5030310;28;101813;-57
2022/01/21 11:09:29;;;;;;;5.87;1.73;;;;;;;0.28;100.00;97625.06;5030500;28;103584;-58
2022/01/21 11:12:10;;;;;;;5.10;1.90;;;;;;;0.35;100.00;97607.78;5029310;28;105464;-59
2022/01/21 11:14:38;;;;;;;4.40;1.80;;;;;;;0.30;100.00;97609.22;5031041;28;101911;-58
2022/01/21 11:17:11;;;;;;;6.23;2.07;;;;;;;0.33;100.00;97604.47;5030281;28;102352;-58
2022/01/21 11:19:39;;;;;;;7.80;1.77;;;;;;;0.51;100.00;97618.28;5030680;27;102597;-58
2022/01/21 11:22:07;;;;;;;3.63;1.63;;;;;;;0.48;100.00;97599.47;5029681;28;101976;-58
2022/01/21 11:24:34;;;;;;;5.97;1.60;;;;;;;0.62;100.00;97604.91;5031427;28;102953;-58
2022/01/21 11:27:13;;;;;;;5.13;1.67;;;;;;;0.53;100.00;97598.03;5034033;28;102721;-58
2022/01/21 11:29:41;;;;;;;3.40;1.60;;;;;;;0.53;100.00;97598.03;5009073;28;105324;-58
2022/01/21 11:32:09;;;;;;;3.20;2.00;;;;;;;0.73;100.00;97601.19;5010860;28;102712;-58
2022/01/21 11:34:37;;;;;;;3.03;1.80;;;;;;;0.65;100.00;97588.91;5025031;28;101939;-58
2022/01/21 11:37:07;;;;;;;7.10;2.20;;;;;;;0.76;100.00;97587.75;5029413;28;103723;-58
2022/01/21 11:39:45;;;;;;;7.40;2.53;;;;;;;0.64;100.00;97568.09;5029037;28;105717;-58
2022/01/21 11:42:13;;;;;;;3.77;2.33;;;;;;;0.56;100.00;97576.75;5031312;27;101791;-58
2022/01/21 11:44:51;;;;;;;6.03;2.83;;;;;;;0.54;100.00;97580.50;5030206;28;104262;-58
2022/01/21 11:47:38;;;;;;;7.37;2.33;;;;;;;0.44;100.00;97579.84;5030832;27;103105;-58
2022/01/21 11:50:06;;;;;;;10.10;3.17;;;;;;;0.45;100.00;97563.16;5033262;28;101755;-58
2022/01/21 11:52:44;;;;;;;6.30;2.70;;;;;;;0.48;100.00;97568.91;5030285;28;102739;-58
2022/01/21 11:55:30;;;;;;;5.20;2.33;;;;;;;0.35;100.00;97562.47;5031398;27;101872;-58
2022/01/21 11:58:26;;;;;;;7.77;2.40;;;;;;;0.39;100.00;97559.38;5029689;28;103562;-58
2022/01/21 12:00:54;;;;;;;4.90;2.40;;;;;;;0.53;100.00;97558.78;5029942;27;104606;-58
2022/01/21 12:03:23;;;;;;;3.97;2.10;;;;;;;0.49;100.00;97564.47;5031015;27;102053;-58
2022/01/21 12:05:51;;;;;;;6.20;2.70;;;;;;;0.53;100.00;97552.72;5029315;28;105226;-58
2022/01/21 12:08:48;;;;;;;7.73;3.20;;;;;;;0.48;100.00;97558.44;5028922;28;103840;-58
2022/01/21 12:11:31;;;;;;;5.43;2.87;;;;;;;0.41;100.00;97551.38;5033118;28;102089;-58
2022/01/21 12:13:59;;;;;;;5.77;2.80;;;;;;;0.52;100.00;97544.06;5030289;27;103107;-58
2022/01/21 12:16:51;;;;;;;5.47;2.30;;;;;;;0.47;100.00;97537.66;5030670;27;101952;-59
2022/01/21 12:19:35;;;;;;;5.60;2.67;;;;;;;0.52;100.00;97538.81;5030904;27;102572;-59
2022/01/21 12:22:13;;;;;;;5.20;2.70;;;;;;;0.57;100.00;97535.72;5028100;28;103796;-58
2022/01/21 12:24:51;;;;;;;7.43;2.90;;;;;;;0.57;100.00;97536.53;5030315;27;101934;-58
2022/01/21 12:27:20;;;;;;;7.43;2.80;;;;;;;0.70;100.00;97546.53;5063081;27;105134;-58
2022/01/21 12:29:47;;;;;;;6.87;3.03;;;;;;;0.77;100.00;97543.09;5029576;28;102878;-58
2022/01/21 12:32:20;;;;;;;5.03;2.20;;;;;;;0.61;100.00;97548.31;5030645;28;101835;-58
2022/01/21 12:35:14;;;;;;;6.97;2.70;;;;;;;0.60;100.00;97538.03;5030496;28;102033;-58
2022/01/21 12:41:35;;;;;;;7.53;2.40;;;;;;;0.59;100.00;97547.66;5028583;28;105467;-58
2022/01/21 12:44:05;;;;;;;6.90;2.33;;;;;;;0.54;100.00;97546.50;5026979;28;105346;-58
2022/01/21 12:46:35;;;;;;;5.70;2.70;;;;;;;0.54;100.00;97544.69;5028831;28;102246;-58
2022/01/21 12:49:34;;;;;;;7.63;3.40;;;;;;;0.61;100.00;97547.50;5030287;28;102947;-58
2022/01/21 12:52:31;;;;;;;10.40;4.30;;;;;;;0.62;100.00;97549.13;5029964;28;102217;-58
2022/01/21 12:57:44;;;;;;;7.13;2.17;;;;;;;0.50;100.00;97553.03;5028369;28;105484;-58